Time;durP1;ratioP1;P1;durP2;ratioP2;P2;SDS_P1;SDS_P2;PMS_P1;PMS_P2;Temp;Humidity;BMP_temperature;BMP_pressure;BME280_temperature;BME280_humidity;BME280_pressure;Samples;Min_cycle;Max_cycle;Signal;HPM_P1;HPM_P2
2023/06/11 00:01:41;;;;;;;;;;;;;;;21.07;79.50;101438.59;4945133;28;20411;-74
2023/06/11 00:04:06;;;;;;;;;;;;;;;20.97;80.68;101438.78;4945324;28;20390;-74
2023/06/11 00:06:32;;;;;;;;;;;;;;;20.82;80.86;101435.91;4933082;28;20383;-74
2023/06/11 00:08:57;;;;;;;;;;;;;;;20.62;82.43;101441.69;4951989;28;19961;-74
2023/06/11 00:11:22;;;;;;;;;;;;;;;20.50;83.43;101435.75;4948974;28;19930;-74
2023/06/11 00:13:48;;;;;;;;;;;;;;;20.48;84.86;101440.50;4945125;28;19933;-74
2023/06/11 00:16:13;;;;;;;;;;;;;;;20.44;84.53;101435.56;4948119;28;20364;-74
2023/06/11 00:18:41;;;;;;;;;;;;;;;20.40;84.87;101428.75;4950206;28;19926;-74
2023/06/11 00:21:10;;;;;;;;;;;;;;;20.40;85.17;101432.31;4946785;28;20324;-74
2023/06/11 00:23:36;;;;;;;;;;;;;;;20.40;84.92;101428.75;4946120;28;20297;-74
2023/06/11 00:26:03;;;;;;;;;;;;;;;20.38;86.21;101423.50;4947405;28;20269;-74
2023/06/11 00:28:28;;;;;;;;;;;;;;;20.36;86.55;101423.63;4944438;28;20388;-74
2023/06/11 00:30:53;;;;;;;;;;;;;;;20.28;87.92;101426.34;4951030;28;19969;-74
2023/06/11 00:33:18;;;;;;;;;;;;;;;20.20;88.04;101429.94;4953489;28;19929;-74
2023/06/11 00:35:44;;;;;;;;;;;;;;;20.20;88.55;101429.09;4951254;28;19961;-74
2023/06/11 00:38:09;;;;;;;;;;;;;;;20.17;89.08;101427.53;4953969;28;19973;-74
2023/06/11 00:40:34;;;;;;;;;;;;;;;20.19;87.89;101428.22;4950038;28;20315;-73
2023/06/11 00:43:02;;;;;;;;;;;;;;;20.17;87.96;101432.16;4950432;28;20457;-73
2023/06/11 00:45:28;;;;;;;;;;;;;;;20.12;91.21;101434.53;4947378;28;19922;-73
2023/06/11 00:47:53;;;;;;;;;;;;;;;20.11;89.98;101425.50;4967652;28;19922;-74
2023/06/11 00:50:18;;;;;;;;;;;;;;;20.16;87.61;101422.28;4951851;28;19922;-74
2023/06/11 00:52:43;;;;;;;;;;;;;;;20.22;89.11;101424.31;4950674;28;19946;-73
2023/06/11 00:55:11;;;;;;;;;;;;;;;20.25;88.17;101431.31;4956445;28;19965;-73
2023/06/11 00:57:40;;;;;;;;;;;;;;;20.22;89.21;101429.78;4958069;28;20323;-74
2023/06/11 01:00:10;;;;;;;;;;;;;;;20.22;89.90;101429.78;4955314;28;19922;-73
2023/06/11 01:02:44;;;;;;;;;;;;;;;20.00;91.99;101432.13;4953492;28;19985;-74
2023/06/11 01:05:11;;;;;;;;;;;;;;;19.85;92.90;101428.31;4956323;28;20358;-73
2023/06/11 01:07:36;;;;;;;;;;;;;;;19.75;92.81;101429.28;4950095;28;19929;-73
2023/06/11 01:10:02;;;;;;;;;;;;;;;19.71;94.16;101436.13;4947190;28;19930;-73
2023/06/11 01:12:27;;;;;;;;;;;;;;;19.69;92.04;101419.09;4949469;28;19929;-73
2023/06/11 01:14:52;;;;;;;;;;;;;;;19.89;91.55;101435.16;4950862;28;20443;-74
2023/06/11 01:17:26;;;;;;;;;;;;;;;19.96;91.18;101436.22;4945859;28;20463;-74
2023/06/11 01:19:58;;;;;;;;;;;;;;;19.96;91.64;101435.34;4959125;28;19928;-74
2023/06/11 01:22:31;;;;;;;;;;;;;;;19.98;91.44;101436.03;4967655;28;19918;-73
2023/06/11 01:25:08;;;;;;;;;;;;;;;20.00;91.04;101437.56;4961048;28;19930;-73
2023/06/11 01:27:36;;;;;;;;;;;;;;;20.06;90.63;101442.34;4945361;28;20246;-74
2023/06/11 01:30:03;;;;;;;;;;;;;;;20.11;90.67;101438.28;4951230;28;20369;-73
2023/06/11 01:32:28;;;;;;;;;;;;;;;20.09;90.32;101433.00;4948827;28;20109;-73
2023/06/11 01:35:02;;;;;;;;;;;;;;;20.05;90.66;101437.09;4956943;28;20337;-74
2023/06/11 01:37:29;;;;;;;;;;;;;;;20.03;90.35;101450.84;4954030;28;19969;-74
2023/06/11 01:39:55;;;;;;;;;;;;;;;19.99;91.48;101444.06;4952421;28;20740;-74
2023/06/11 01:42:20;;;;;;;;;;;;;;;19.90;91.08;101434.16;4948701;28;19926;-73
2023/06/11 01:44:45;;;;;;;;;;;;;;;19.85;92.66;101440.09;4953524;28;19929;-73
2023/06/11 01:47:10;;;;;;;;;;;;;;;19.75;93.93;101442.09;4957193;28;20392;-73
2023/06/11 01:49:36;;;;;;;;;;;;;;;19.68;94.85;101441.03;4954865;28;20566;-73
2023/06/11 01:52:01;;;;;;;;;;;;;;;19.60;95.17;101442.69;4954845;28;20538;-74
2023/06/11 01:54:26;;;;;;;;;;;;;;;19.61;95.53;101438.97;4952970;28;20137;-73
2023/06/11 01:56:51;;;;;;;;;;;;;;;19.62;95.76;101442.56;4958150;28;19929;-73
2023/06/11 01:59:17;;;;;;;;;;;;;;;19.64;95.22;101432.34;4956528;28;19922;-74
2023/06/11 02:01:43;;;;;;;;;;;;;;;19.67;94.44;101431.16;4957164;28;19957;-73
2023/06/11 02:04:09;;;;;;;;;;;;;;;19.68;94.39;101431.00;4946101;28;19926;-74
2023/06/11 02:06:34;;;;;;;;;;;;;;;19.69;94.97;101429.13;4953266;28;19969;-74
2023/06/11 02:08:59;;;;;;;;;;;;;;;19.66;95.22;101432.16;4950666;28;20020;-74
2023/06/11 02:11:24;;;;;;;;;;;;;;;19.63;94.85;101433.38;4947430;28;20289;-74
2023/06/11 02:13:50;;;;;;;;;;;;;;;19.60;95.84;101428.25;4953218;28;20044;-74
2023/06/11 02:16:15;;;;;;;;;;;;;;;19.59;96.47;101421.09;4956630;28;19942;-74
2023/06/11 02:18:40;;;;;;;;;;;;;;;19.56;96.47;101427.72;4959492;28;19978;-74
2023/06/11 02:21:05;;;;;;;;;;;;;;;19.49;97.00;101427.50;4959678;28;20005;-74
2023/06/11 02:23:30;;;;;;;;;;;;;;;19.40;97.61;101433.09;4953012;28;20106;-74
2023/06/11 02:25:56;;;;;;;;;;;;;;;19.31;98.13;101430.34;4958710;28;20021;-74
2023/06/11 02:28:22;;;;;;;;;;;;;;;19.24;99.73;101439.31;4958359;28;20358;-74
2023/06/11 02:30:47;;;;;;;;;;;;;;;19.19;99.90;101434.38;4970424;28;20573;-73
2023/06/11 02:33:13;;;;;;;;;;;;;;;19.20;100.00;101422.47;4954514;28;20192;-73
2023/06/11 02:35:38;;;;;;;;;;;;;;;19.24;100.00;101434.72;4958437;28;19922;-73
2023/06/11 02:38:03;;;;;;;;;;;;;;;19.25;99.83;101431.00;4958694;28;20048;-73
2023/06/11 02:40:28;;;;;;;;;;;;;;;19.23;100.00;101432.16;4955050;28;20080;-73
2023/06/11 02:42:53;;;;;;;;;;;;;;;19.24;100.00;101431.13;4949542;28;20376;-73
2023/06/11 02:45:19;;;;;;;;;;;;;;;19.14;100.00;101437.56;4953422;28;19929;-73
2023/06/11 02:47:44;;;;;;;;;;;;;;;19.07;100.00;101439.22;4954588;28;19957;-73
2023/06/11 02:50:09;;;;;;;;;;;;;;;19.03;100.00;101440.56;4954482;28;20317;-73
2023/06/11 02:52:35;;;;;;;;;;;;;;;18.99;100.00;101433.72;4953241;28;20361;-73
2023/06/11 02:55:00;;;;;;;;;;;;;;;19.01;100.00;101437.16;4960846;28;19973;-73
2023/06/11 02:57:25;;;;;;;;;;;;;;;19.00;100.00;101433.59;4956076;28;19977;-73
2023/06/11 02:59:50;;;;;;;;;;;;;;;19.00;100.00;101441.75;4953008;28;20389;-73
2023/06/11 03:02:16;;;;;;;;;;;;;;;18.94;100.00;101436.03;4951726;28;19922;-73
2023/06/11 03:04:41;;;;;;;;;;;;;;;18.97;100.00;101436.63;4953347;28;19929;-73
2023/06/11 03:07:06;;;;;;;;;;;;;;;18.99;100.00;101437.31;4956039;28;19941;-73
2023/06/11 03:09:32;;;;;;;;;;;;;;;18.98;100.00;101443.78;4957865;28;20073;-73
2023/06/11 03:11:57;;;;;;;;;;;;;;;18.91;100.00;101439.94;4957552;28;20417;-73
2023/06/11 03:14:24;;;;;;;;;;;;;;;18.92;100.00;101438.09;4954009;28;19953;-73
2023/06/11 03:16:49;;;;;;;;;;;;;;;18.89;100.00;101442.84;4958370;28;19922;-73
2023/06/11 03:19:14;;;;;;;;;;;;;;;18.88;100.00;101449.28;4956083;28;19944;-73
2023/06/11 03:21:40;;;;;;;;;;;;;;;18.88;100.00;101451.16;4953344;28;19962;-73
2023/06/11 03:24:05;;;;;;;;;;;;;;;18.86;100.00;101456.75;4956086;28;19926;-72
2023/06/11 03:26:30;;;;;;;;;;;;;;;18.91;100.00;101450.84;4959913;28;19961;-73
2023/06/11 03:28:55;;;;;;;;;;;;;;;18.88;100.00;101446.56;4949614;28;20068;-73
2023/06/11 03:31:21;;;;;;;;;;;;;;;18.85;100.00;101454.19;4959153;28;19937;-73
2023/06/11 03:33:47;;;;;;;;;;;;;;;18.80;100.00;101453.81;4952091;28;19918;-73
2023/06/11 03:36:12;;;;;;;;;;;;;;;18.78;100.00;101456.69;4960782;28;20048;-73
2023/06/11 03:38:37;;;;;;;;;;;;;;;18.76;100.00;101457.88;4957148;28;19922;-73
2023/06/11 03:41:02;;;;;;;;;;;;;;;18.72;100.00;101447.31;4953158;28;19965;-73
2023/06/11 03:43:28;;;;;;;;;;;;;;;18.69;100.00;101457.63;4965311;28;20016;-73
2023/06/11 03:45:53;;;;;;;;;;;;;;;18.62;100.00;101456.56;4956833;28;19922;-73
2023/06/11 03:48:18;;;;;;;;;;;;;;;18.65;100.00;101458.97;4949509;28;20380;-72
2023/06/11 03:50:43;;;;;;;;;;;;;;;18.61;100.00;101461.16;4955691;28;20679;-73
2023/06/11 03:53:09;;;;;;;;;;;;;;;18.57;100.00;101457.03;4950367;28;20380;-73
2023/06/11 03:55:34;;;;;;;;;;;;;;;18.58;100.00;101467.75;4972334;28;19922;-73
2023/06/11 03:57:59;;;;;;;;;;;;;;;18.57;100.00;101462.47;4964341;28;19922;-73
2023/06/11 04:00:26;;;;;;;;;;;;;;;18.57;100.00;101455.19;4956568;28;19997;-73
2023/06/11 04:02:53;;;;;;;;;;;;;;;18.62;100.00;101462.84;4952718;28;19926;-73
2023/06/11 04:05:19;;;;;;;;;;;;;;;18.61;100.00;101460.31;4955811;28;19969;-73
2023/06/11 04:07:44;;;;;;;;;;;;;;;18.59;100.00;101455.00;4955607;28;19968;-73
2023/06/11 04:10:09;;;;;;;;;;;;;;;18.73;100.00;101464.47;4953958;28;20380;-73
2023/06/11 04:12:35;;;;;;;;;;;;;;;18.69;100.00;101463.06;4954992;28;20269;-73
2023/06/11 04:15:00;;;;;;;;;;;;;;;18.68;100.00;101458.63;4957162;28;19977;-73
2023/06/11 04:17:25;;;;;;;;;;;;;;;18.70;100.00;101462.06;4960615;28;19928;-73
2023/06/11 04:19:51;;;;;;;;;;;;;;;18.65;100.00;101462.53;4956577;28;19926;-73
2023/06/11 04:22:16;;;;;;;;;;;;;;;18.63;100.00;101466.44;4952950;28;19922;-72
2023/06/11 04:24:41;;;;;;;;;;;;;;;18.73;100.00;101472.63;4956348;28;20347;-72
2023/06/11 04:27:06;;;;;;;;;;;;;;;18.75;100.00;101467.88;4961566;28;20004;-72
2023/06/11 04:29:33;;;;;;;;;;;;;;;18.55;100.00;101442.72;4953384;28;20185;-73
2023/06/11 04:32:01;;;;;;;;;;;;;;;18.77;100.00;101471.31;4957312;28;20340;-73
2023/06/11 04:34:28;;;;;;;;;;;;;;;18.77;100.00;101462.31;4956698;28;19953;-73
2023/06/11 04:36:54;;;;;;;;;;;;;;;18.59;100.00;101428.69;4970471;28;19925;-73
2023/06/11 04:39:20;;;;;;;;;;;;;;;18.86;100.00;101469.50;4951535;28;19992;-72
2023/06/11 04:41:46;;;;;;;;;;;;;;;18.92;100.00;101468.03;4971986;28;19932;-73
2023/06/11 04:44:12;;;;;;;;;;;;;;;18.97;100.00;101474.72;4956583;28;19977;-73
2023/06/11 04:46:38;;;;;;;;;;;;;;;19.03;100.00;101465.91;4958608;28;19926;-73
2023/06/11 04:49:04;;;;;;;;;;;;;;;19.11;100.00;101464.25;4957038;28;19941;-73
2023/06/11 04:51:32;;;;;;;;;;;;;;;19.11;100.00;101476.00;4956455;28;20659;-73
2023/06/11 04:53:58;;;;;;;;;;;;;;;19.21;100.00;101480.47;4957125;28;19919;-73
2023/06/11 04:56:23;;;;;;;;;;;;;;;19.13;100.00;101465.81;4950751;28;19928;-75
2023/06/11 04:58:49;;;;;;;;;;;;;;;19.24;100.00;101471.97;4963332;28;20424;-73
2023/06/11 05:01:15;;;;;;;;;;;;;;;19.28;100.00;101467.91;4949818;28;19922;-73
2023/06/11 05:03:40;;;;;;;;;;;;;;;19.35;100.00;101477.16;4967998;28;19969;-74
2023/06/11 05:06:06;;;;;;;;;;;;;;;19.10;100.00;101436.19;4955370;28;19922;-73
2023/06/11 05:08:32;;;;;;;;;;;;;;;19.45;100.00;101472.44;4953799;28;19981;-73
2023/06/11 05:10:57;;;;;;;;;;;;;;;19.51;100.00;101464.63;4960242;28;19922;-75
2023/06/11 05:13:25;;;;;;;;;;;;;;;19.61;100.00;101471.63;4935723;28;20328;-73
2023/06/11 05:15:50;;;;;;;;;;;;;;;19.69;100.00;101469.97;4955669;28;19922;-73
2023/06/11 05:18:15;;;;;;;;;;;;;;;19.74;100.00;101476.63;4942723;28;20257;-75
2023/06/11 05:20:41;;;;;;;;;;;;;;;19.74;99.94;101475.78;4958329;28;19995;-75
2023/06/11 05:23:06;;;;;;;;;;;;;;;19.78;100.00;101479.91;4959338;28;20104;-74
2023/06/11 05:25:32;;;;;;;;;;;;;;;19.83;100.00;101482.97;4958709;28;20376;-75
2023/06/11 05:28:01;;;;;;;;;;;;;;;19.88;99.36;101482.50;4957843;28;19964;-74
2023/06/11 05:30:33;;;;;;;;;;;;;;;20.01;99.09;101485.59;4940250;28;19922;-74
2023/06/11 05:32:58;;;;;;;;;;;;;;;20.06;100.00;101477.78;4955537;28;19926;-74
2023/06/11 05:35:23;;;;;;;;;;;;;;;20.13;100.00;101482.56;4958447;28;20502;-74
2023/06/11 05:37:48;;;;;;;;;;;;;;;20.19;97.61;101487.38;4958972;28;20113;-75
2023/06/11 05:40:14;;;;;;;;;;;;;;;20.34;100.00;101485.66;4960363;28;20346;-75
2023/06/11 05:42:40;;;;;;;;;;;;;;;20.43;97.50;101480.22;4958357;28;19961;-75
2023/06/11 05:45:06;;;;;;;;;;;;;;;20.52;99.20;101482.78;4958103;28;20397;-75
2023/06/11 05:47:32;;;;;;;;;;;;;;;20.57;100.00;101478.72;4954366;28;20325;-75
2023/06/11 05:49:57;;;;;;;;;;;;;;;20.64;96.29;101480.56;4958044;28;20020;-74
2023/06/11 05:52:22;;;;;;;;;;;;;;;20.73;95.20;101475.97;4954631;28;19948;-75
2023/06/11 05:54:48;;;;;;;;;;;;;;;20.81;98.48;101480.59;4957771;28;20439;-74
2023/06/11 05:57:19;;;;;;;;;;;;;;;20.96;96.00;101481.63;4956927;28;20292;-72
2023/06/11 05:59:45;;;;;;;;;;;;;;;21.03;94.58;101481.78;4957178;28;19929;-74
2023/06/11 06:02:10;;;;;;;;;;;;;;;21.10;92.94;101485.50;4949949;28;20497;-74
2023/06/11 06:04:35;;;;;;;;;;;;;;;21.30;92.08;101490.59;4949980;28;20492;-73
2023/06/11 06:07:00;;;;;;;;;;;;;;;21.37;90.70;101499.78;4956946;28;20649;-74
2023/06/11 06:09:26;;;;;;;;;;;;;;;21.48;93.69;101493.09;4959302;28;19930;-73
2023/06/11 06:11:51;;;;;;;;;;;;;;;21.58;93.14;101491.00;4954503;28;19926;-74
2023/06/11 06:14:16;;;;;;;;;;;;;;;21.73;95.97;101499.31;4951905;28;19926;-73
2023/06/11 06:16:41;;;;;;;;;;;;;;;21.88;89.34;101504.91;4954686;28;19926;-74
2023/06/11 06:19:06;;;;;;;;;;;;;;;22.01;86.67;101504.31;4956604;28;19922;-75
2023/06/11 06:21:32;;;;;;;;;;;;;;;22.00;88.41;101499.88;4967046;28;20377;-74
2023/06/11 06:23:57;;;;;;;;;;;;;;;22.09;88.32;101500.72;4972319;28;19925;-72
2023/06/11 06:26:23;;;;;;;;;;;;;;;22.17;90.34;101506.09;4936817;28;20065;-74
2023/06/11 06:28:48;;;;;;;;;;;;;;;22.17;87.25;101508.84;4951939;28;19922;-72
2023/06/11 06:31:14;;;;;;;;;;;;;;;22.30;86.33;101516.44;4959830;28;20260;-72
2023/06/11 06:33:39;;;;;;;;;;;;;;;22.29;86.48;101516.66;4955597;28;19929;-75
2023/06/11 06:36:04;;;;;;;;;;;;;;;22.35;86.99;101509.59;4941778;28;19929;-73
2023/06/11 06:38:31;;;;;;;;;;;;;;;22.52;85.56;101507.63;4955621;28;19918;-74
2023/06/11 06:40:57;;;;;;;;;;;;;;;22.58;86.17;101513.22;4955227;28;19922;-75
2023/06/11 06:43:22;;;;;;;;;;;;;;;22.56;82.92;101511.69;4956851;28;19918;-75
2023/06/11 06:45:47;;;;;;;;;;;;;;;22.60;83.21;101507.56;4956321;28;20669;-76
2023/06/11 06:48:12;;;;;;;;;;;;;;;22.70;83.53;101515.53;4955597;28;20431;-75
2023/06/11 06:50:38;;;;;;;;;;;;;;;22.69;83.84;101503.72;4971686;28;20387;-76
2023/06/11 06:53:05;;;;;;;;;;;;;;;22.77;82.46;101517.34;4940713;28;20289;-75
2023/06/11 06:55:30;;;;;;;;;;;;;;;23.00;85.48;101512.88;4957173;28;19919;-75
2023/06/11 06:57:55;;;;;;;;;;;;;;;23.15;83.00;101496.47;4937122;28;20025;-75
2023/06/11 07:00:20;;;;;;;;;;;;;;;23.28;86.05;101504.91;4955838;28;20021;-75
2023/06/11 07:02:46;;;;;;;;;;;;;;;23.32;81.64;101506.22;4953186;28;20403;-75
2023/06/11 07:05:12;;;;;;;;;;;;;;;23.40;86.86;101502.53;4955482;28;20012;-75
2023/06/11 07:07:37;;;;;;;;;;;;;;;23.28;81.94;101471.19;4954528;28;19928;-75
2023/06/11 07:10:03;;;;;;;;;;;;;;;23.60;83.96;101512.91;4952883;28;19922;-75
2023/06/11 07:12:28;;;;;;;;;;;;;;;23.59;80.19;101513.97;4957151;28;20026;-79
2023/06/11 07:14:53;;;;;;;;;;;;;;;23.72;78.44;101514.16;4954713;28;21200;-78
2023/06/11 07:17:20;;;;;;;;;;;;;;;23.78;79.77;101509.78;4949167;28;19922;-76
2023/06/11 07:19:45;;;;;;;;;;;;;;;23.79;79.73;101512.34;4949624;28;19922;-75
2023/06/11 07:22:11;;;;;;;;;;;;;;;24.03;76.06;101512.22;4948737;28;19935;-75
2023/06/11 07:24:36;;;;;;;;;;;;;;;23.99;77.61;101513.66;4946827;28;19961;-73
2023/06/11 07:27:01;;;;;;;;;;;;;;;24.06;80.45;101515.47;4948312;28;20397;-76
2023/06/11 07:29:27;;;;;;;;;;;;;;;24.16;81.34;101517.88;4965433;28;20007;-77
2023/06/11 07:31:52;;;;;;;;;;;;;;;24.23;74.97;101507.81;4950348;28;19965;-73
2023/06/11 07:34:19;;;;;;;;;;;;;;;24.18;75.80;101521.28;4947607;28;19925;-76
2023/06/11 07:36:44;;;;;;;;;;;;;;;24.22;75.22;101519.88;4950124;28;20277;-77
2023/06/11 07:39:09;;;;;;;;;;;;;;;24.36;77.09;101512.63;4945551;28;19923;-77
2023/06/11 07:41:35;;;;;;;;;;;;;;;24.47;75.88;101524.09;4954199;28;19969;-76
2023/06/11 07:44:00;;;;;;;;;;;;;;;24.54;75.96;101516.81;4949176;28;19926;-77
2023/06/11 07:46:26;;;;;;;;;;;;;;;24.69;70.45;101512.06;4950827;28;19924;-78
2023/06/11 07:48:51;;;;;;;;;;;;;;;24.86;72.55;101511.84;4950704;28;20103;-77
2023/06/11 07:51:20;;;;;;;;;;;;;;;24.91;69.73;101511.25;4951473;28;19932;-74
2023/06/11 07:53:46;;;;;;;;;;;;;;;25.03;69.90;101508.78;4949034;28;19952;-76
2023/06/11 07:56:11;;;;;;;;;;;;;;;24.96;68.95;101506.84;4950481;28;19922;-75
2023/06/11 07:58:36;;;;;;;;;;;;;;;24.83;71.36;101488.34;4948288;28;19933;-78
2023/06/11 08:01:02;;;;;;;;;;;;;;;25.02;71.12;101507.97;4935946;28;19937;-78
2023/06/11 08:03:27;;;;;;;;;;;;;;;25.09;68.56;101513.50;4943160;28;19984;-74
2023/06/11 08:05:52;;;;;;;;;;;;;;;25.20;69.68;101512.09;4946085;28;20440;-76
2023/06/11 08:08:18;;;;;;;;;;;;;;;25.36;72.09;101503.53;4948767;28;20712;-77
2023/06/11 08:10:45;;;;;;;;;;;;;;;25.59;72.49;101513.41;4962149;28;19950;-76
2023/06/11 08:13:10;;;;;;;;;;;;;;;25.73;70.77;101511.56;4944984;28;20036;-76
2023/06/11 08:15:38;;;;;;;;;;;;;;;25.81;70.60;101510.56;4949552;28;19926;-76
2023/06/11 08:18:03;;;;;;;;;;;;;;;25.88;62.61;101509.53;4946979;28;20459;-75
2023/06/11 08:20:29;;;;;;;;;;;;;;;25.98;67.41;101508.28;4949014;28;19949;-76
2023/06/11 08:22:54;;;;;;;;;;;;;;;25.82;62.42;101506.75;4948544;28;19929;-75
2023/06/11 08:25:19;;;;;;;;;;;;;;;25.90;67.12;101503.81;4946466;28;19922;-77
2023/06/11 08:27:45;;;;;;;;;;;;;;;26.01;65.69;101505.13;4946233;28;19925;-78
2023/06/11 08:30:10;;;;;;;;;;;;;;;26.14;64.45;101499.69;4950095;28;19988;-79
2023/06/11 08:32:35;;;;;;;;;;;;;;;26.27;63.97;101504.38;4944050;28;19965;-76
2023/06/11 08:35:00;;;;;;;;;;;;;;;26.24;61.37;101503.94;4953606;28;20202;-78
2023/06/11 08:37:26;;;;;;;;;;;;;;;26.34;63.60;101502.50;4942108;28;20421;-77
2023/06/11 08:39:51;;;;;;;;;;;;;;;26.60;59.86;101508.25;4944221;28;20110;-75
2023/06/11 08:42:16;;;;;;;;;;;;;;;26.60;61.98;101502.72;4948961;28;19945;-75
2023/06/11 08:44:41;;;;;;;;;;;;;;;26.58;61.63;101508.47;4957788;28;20380;-76
2023/06/11 08:47:07;;;;;;;;;;;;;;;26.49;60.62;101505.03;4940218;28;20383;-80
2023/06/11 08:49:32;;;;;;;;;;;;;;;26.65;63.03;101498.28;4949076;28;20369;-78
2023/06/11 08:52:01;;;;;;;;;;;;;;;26.82;61.69;101503.41;4954835;28;19973;-76
2023/06/11 08:54:27;;;;;;;;;;;;;;;26.70;59.91;101497.66;4951514;28;19924;-79
2023/06/11 08:56:52;;;;;;;;;;;;;;;26.90;59.91;101503.19;4969435;28;20295;-81
2023/06/11 08:59:19;;;;;;;;;;;;;;;26.83;59.16;101498.75;4967355;28;19944;-79
2023/06/11 09:01:50;;;;;;;;;;;;;;;26.85;58.62;101503.00;4960218;28;19968;-78
2023/06/11 09:04:16;;;;;;;;;;;;;;;27.08;60.02;101496.19;4952397;28;20447;-78
2023/06/11 09:06:48;;;;;;;;;;;;;;;27.12;57.82;101508.47;4964318;28;20041;-78
2023/06/11 09:09:13;;;;;;;;;;;;;;;27.21;56.12;101496.16;4947228;28;20396;-74
2023/06/11 09:11:39;;;;;;;;;;;;;;;27.26;58.50;101481.75;4963023;28;19922;-73
2023/06/11 09:14:05;;;;;;;;;;;;;;;27.36;53.91;101478.53;4952645;28;20432;-76
2023/06/11 09:16:43;;;;;;;;;;;;;;;27.74;59.16;101488.81;4965309;28;19933;-78
2023/06/11 09:19:13;;;;;;;;;;;;;;;27.80;57.80;101492.63;4965147;28;19922;-79
2023/06/11 09:21:38;;;;;;;;;;;;;;;27.83;54.61;101482.00;4970008;28;19937;-75
2023/06/11 09:24:08;;;;;;;;;;;;;;;27.88;53.54;101480.47;4954109;28;19926;-74
2023/06/11 09:26:34;;;;;;;;;;;;;;;28.03;60.53;101486.56;4952188;28;19922;-74
2023/06/11 09:28:59;;;;;;;;;;;;;;;28.29;56.50;101488.34;4953283;28;20023;-77
2023/06/11 09:31:25;;;;;;;;;;;;;;;28.31;55.39;101492.81;4951458;28;19957;-78
2023/06/11 09:33:51;;;;;;;;;;;;;;;28.40;54.03;101489.53;4934292;28;19969;-77
2023/06/11 09:36:17;;;;;;;;;;;;;;;28.56;54.71;101482.63;4950230;28;21895;-75
2023/06/11 09:38:43;;;;;;;;;;;;;;;28.30;53.44;101478.13;4952629;28;20046;-73
2023/06/11 09:41:08;;;;;;;;;;;;;;;28.49;50.43;101483.72;4965616;28;19949;-74
2023/06/11 09:43:34;;;;;;;;;;;;;;;28.46;49.50;101468.47;4952563;28;19922;-73
2023/06/11 09:46:00;;;;;;;;;;;;;;;28.50;50.58;101486.28;4952089;28;20443;-78
2023/06/11 09:48:25;;;;;;;;;;;;;;;28.72;53.11;101478.47;4948529;28;19926;-77
2023/06/11 09:50:53;;;;;;;;;;;;;;;28.71;52.33;101475.91;4959414;28;20150;-77
2023/06/11 09:53:19;;;;;;;;;;;;;;;28.87;51.21;101474.53;4946942;28;19929;-79
2023/06/11 09:55:50;;;;;;;;;;;;;;;28.98;53.80;101481.22;4951016;28;19921;-78
2023/06/11 09:58:22;;;;;;;;;;;;;;;29.07;49.03;101481.78;4948304;28;19922;-74
2023/06/11 10:00:48;;;;;;;;;;;;;;;28.64;50.95;101487.03;4946262;28;20421;-76
2023/06/11 10:03:13;;;;;;;;;;;;;;;28.68;51.07;101479.13;4949317;28;19992;-79
2023/06/11 10:05:38;;;;;;;;;;;;;;;28.97;51.60;101485.91;4948054;28;19973;-78
2023/06/11 10:08:07;;;;;;;;;;;;;;;29.16;53.84;101488.69;4946872;28;20020;-78
2023/06/11 10:10:34;;;;;;;;;;;;;;;29.26;50.31;101480.72;4946121;28;19936;-76
2023/06/11 10:12:59;;;;;;;;;;;;;;;29.12;49.47;101490.22;4945640;28;19926;-78
2023/06/11 10:15:24;;;;;;;;;;;;;;;29.34;51.73;101494.25;4962131;28;19922;-75
2023/06/11 10:17:50;;;;;;;;;;;;;;;29.41;45.92;101496.94;4958455;28;19968;-75
2023/06/11 10:20:35;;;;;;;;;;;;;;;29.53;45.60;101485.97;4948723;28;19965;-75
2023/06/11 10:23:06;;;;;;;;;;;;;;;29.78;44.38;101491.41;4956757;28;20450;-79
2023/06/11 10:25:33;;;;;;;;;;;;;;;29.86;43.19;101481.94;4958158;28;19922;-80
2023/06/11 10:27:58;;;;;;;;;;;;;;;30.00;45.50;101481.78;4966504;28;20025;-77
2023/06/11 10:30:24;;;;;;;;;;;;;;;30.28;49.86;101480.31;4954673;28;20267;-76
2023/06/11 10:32:49;;;;;;;;;;;;;;;30.56;52.49;101490.75;4963064;28;19970;-78
2023/06/11 10:35:20;;;;;;;;;;;;;;;30.13;44.79;101494.59;4968440;28;19922;-77
2023/06/11 10:37:45;;;;;;;;;;;;;;;29.89;46.72;101489.78;4969162;28;20395;-78
2023/06/11 10:40:11;;;;;;;;;;;;;;;30.18;47.79;101478.97;4955800;28;20252;-78
2023/06/11 10:42:38;;;;;;;;;;;;;;;30.40;45.57;101480.34;4948238;28;19926;-77
2023/06/11 10:45:08;;;;;;;;;;;;;;;30.72;48.82;101489.22;4948267;28;19922;-78
2023/06/11 10:47:40;;;;;;;;;;;;;;;30.73;43.92;101492.81;4950179;28;20239;-78
2023/06/11 10:50:08;;;;;;;;;;;;;;;31.00;38.70;101484.91;4953965;28;19926;-72
2023/06/11 10:52:50;;;;;;;;;;;;;;;31.13;44.89;101484.63;4957785;28;19944;-76
2023/06/11 10:55:16;;;;;;;;;;;;;;;30.94;42.58;101481.16;4959486;28;19928;-77
2023/06/11 10:57:41;;;;;;;;;;;;;;;31.08;40.50;101484.53;4957754;28;19922;-74
2023/06/11 11:00:07;;;;;;;;;;;;;;;30.94;40.50;101475.63;4958922;28;20748;-74
2023/06/11 11:02:32;;;;;;;;;;;;;;;30.67;40.53;101481.63;4947322;28;19993;-75
2023/06/11 11:04:58;;;;;;;;;;;;;;;30.46;42.02;101477.47;4945881;28;19923;-74
2023/06/11 11:07:33;;;;;;;;;;;;;;;30.58;41.89;101477.53;4951017;28;20331;-76
2023/06/11 11:09:59;;;;;;;;;;;;;;;30.84;41.48;101472.59;4960901;28;19930;-76
2023/06/11 11:12:24;;;;;;;;;;;;;;;30.89;38.24;101474.63;4957886;28;20617;-82
2023/06/11 11:14:50;;;;;;;;;;;;;;;31.45;40.67;101483.44;4941491;28;19953;-85
2023/06/11 11:17:15;;;;;;;;;;;;;;;31.62;39.25;101464.09;4953425;28;19925;-76
2023/06/11 11:19:41;;;;;;;;;;;;;;;31.95;39.42;101464.47;4963931;28;20016;-85
2023/06/11 11:22:06;;;;;;;;;;;;;;;32.22;38.34;101463.84;4972092;28;19968;-76
2023/06/11 11:24:37;;;;;;;;;;;;;;;32.12;37.32;101462.56;4963396;28;20005;-72
2023/06/11 11:27:04;;;;;;;;;;;;;;;32.25;35.58;101458.63;4955978;28;20009;-73
2023/06/11 11:29:30;;;;;;;;;;;;;;;32.01;37.74;101463.47;4960505;28;19926;-78
2023/06/11 11:31:55;;;;;;;;;;;;;;;32.06;42.14;101463.53;4965848;28;19929;-75
2023/06/11 11:34:22;;;;;;;;;;;;;;;32.39;38.78;101461.13;4965774;28;19921;-83
2023/06/11 11:36:47;;;;;;;;;;;;;;;32.52;37.02;101462.72;4976411;28;20040;-71
2023/06/11 11:39:15;;;;;;;;;;;;;;;32.68;35.63;101456.31;4966687;28;20012;-79
2023/06/11 11:41:45;;;;;;;;;;;;;;;32.00;36.82;101459.84;4960004;28;19918;-78
2023/06/11 11:44:10;;;;;;;;;;;;;;;31.29;37.73;101462.84;4957372;28;19972;-80
2023/06/11 11:46:36;;;;;;;;;;;;;;;31.66;37.77;101453.31;4961007;28;19922;-81
2023/06/11 11:49:02;;;;;;;;;;;;;;;31.89;39.12;101441.31;4958651;28;20004;-79
2023/06/11 11:51:29;;;;;;;;;;;;;;;31.81;38.87;101453.66;4957701;28;19965;-79
2023/06/11 11:53:54;;;;;;;;;;;;;;;32.05;36.74;101452.69;4960381;28;19929;-78
2023/06/11 11:56:20;;;;;;;;;;;;;;;31.47;37.04;101452.66;4958010;28;19922;-79
2023/06/11 11:58:45;;;;;;;;;;;;;;;32.14;36.37;101454.81;4957382;28;19926;-78
2023/06/11 12:01:21;;;;;;;;;;;;;;;32.53;36.80;101462.44;4959564;28;19922;-76
2023/06/11 12:03:54;;;;;;;;;;;;;;;32.68;34.85;101458.25;4957294;28;19961;-84
2023/06/11 12:06:22;;;;;;;;;;;;;;;31.96;37.60;101457.81;4956762;28;19922;-77
2023/06/11 12:08:47;;;;;;;;;;;;;;;31.68;35.68;101453.91;4957649;28;19969;-79
2023/06/11 12:11:13;;;;;;;;;;;;;;;31.43;34.73;101446.75;4956347;28;19973;-72
2023/06/11 12:13:38;;;;;;;;;;;;;;;31.63;35.64;101440.81;4951973;28;20050;-70
2023/06/11 12:16:03;;;;;;;;;;;;;;;31.32;34.32;101447.63;4955046;28;20766;-79
2023/06/11 12:18:28;;;;;;;;;;;;;;;31.68;37.94;101445.59;4956296;28;20432;-73
2023/06/11 12:20:54;;;;;;;;;;;;;;;32.75;34.12;101445.00;4957210;28;19930;-80
2023/06/11 12:23:19;;;;;;;;;;;;;;;32.95;35.24;101441.72;4955798;28;19929;-80
2023/06/11 12:25:45;;;;;;;;;;;;;;;33.42;35.03;101434.88;4957374;28;19981;-74
2023/06/11 12:28:10;;;;;;;;;;;;;;;32.66;33.59;101429.88;4958942;28;19926;-78
2023/06/11 12:30:36;;;;;;;;;;;;;;;33.27;32.21;101437.41;4954303;28;19930;-75